Aegaeo — SXYY — position and weather

sailwx.info

Track history (hours):
 
Tides and Currents Weather Stations Pressure Air Temp Water Temp Dewpoint Dewpoint Depression Visibility Wind Speed Wind Dir Waves Ship Positions

Oceanographic research ship Aegaeo (Greece)

Detailed information on ship capabilities available from University of Delaware's Ocean Information Center.

Last reported at 2019-Aug-30 04:25 UTC. Time now 2019-Sep-21 21:22 UTC.
Position N 37°56' E 023°37'.
Warning: this ship's position is 22 days out of date.

Length 61.5 m; beam 9.6 m; draft 2.9 m.

Type: Ship (hazmat cat A). MMSI: 237529000.

Date/timePositionNaut miles runAvg speedWind from/ knotsBaromVisibWave heightAir tempDewpointWater temp
2019-Aug-30 04:25N 37°56' E 023°37'1 1.5
2019-Aug-30 04:00N 37°56' E 023°37'4 7.8
2019-Aug-30 03:30N 37°52' E 023°35'4 7.4
2019-Aug-30 03:00N 37°49' E 023°35'4 7.3
2019-Aug-30 02:30N 37°45' E 023°35'1 2.1
2019-Aug-30 02:00N 37°44' E 023°34'0 0.0
2019-Aug-30 01:30N 37°44' E 023°34'0 0.0
2019-Aug-30 01:00N 37°44' E 023°34'0 1.0
2019-Aug-30 00:30N 37°44' E 023°34'0 0.0
2019-Aug-30 00:00N 37°44' E 023°34'0 0.0
2019-Aug-29 23:30N 37°44' E 023°34'0 0.0
2019-Aug-29 23:00N 37°44' E 023°34'0 0.9
2019-Aug-29 22:30N 37°44' E 023°34'4 7.2
2019-Aug-29 22:00N 37°41' E 023°35'4 7.1
2019-Aug-29 21:30N 37°37' E 023°35'4 7.4
2019-Aug-29 21:01N 37°33' E 023°36'4 7.6
2019-Aug-29 20:31N 37°29' E 023°36'4 7.4
2019-Aug-29 20:00N 37°26' E 023°36'4 7.4
2019-Aug-29 19:30N 37°22' E 023°36'5 8.2
2019-Aug-29 18:55N 37°17' E 023°35'12 7.5
2019-Aug-29 17:18N 37°06' E 023°31'  
2019-Aug-25 07:43N 37°19' E 025°54'2 9.2
2019-Aug-25 07:30N 37°20' E 025°52'5 9.4
2019-Aug-25 07:00N 37°22' E 025°47'4 7.9
2019-Aug-25 06:31N 37°24' E 025°42'0 0.2
2019-Aug-25 06:00N 37°24' E 025°42'0 0.5
2019-Aug-25 05:30N 37°25' E 025°42'1 1.2
2019-Aug-25 05:00N 37°24' E 025°42'0 0.8
2019-Aug-25 04:30N 37°25' E 025°42'0 0.5
2019-Aug-25 04:00N 37°25' E 025°42'3 5.0
2019-Aug-25 03:30N 37°27' E 025°41'510.0
2019-Aug-25 03:00N 37°32' E 025°39'5 9.8
2019-Aug-25 02:30N 37°36' E 025°36'5 9.7
2019-Aug-25 02:00N 37°41' E 025°34'5 9.5
2019-Aug-25 01:30N 37°45' E 025°32'5 9.6
2019-Aug-25 01:00N 37°50' E 025°30'63 5.4
2019-Aug-24 13:18N 37°36' E 024°12'2 7.8
2019-Aug-24 13:00N 37°34' E 024°10'6 6.8
2019-Aug-24 12:10N 37°30' E 024°06'5 1.6
2019-Aug-24 09:08N 37°32' E 024°00'210.1
2019-Aug-24 08:54N 37°34' E 023°58'410.0
2019-Aug-24 08:29N 37°37' E 023°55'5 9.8
2019-Aug-24 08:00N 37°40' E 023°50'5 9.7
2019-Aug-24 07:30N 37°44' E 023°47'510.0
2019-Aug-24 07:00N 37°48' E 023°43'510.2
2019-Aug-24 06:30N 37°53' E 023°40'4 8.5
2019-Aug-24 06:00N 37°56' E 023°37'0 0.0
2019-Aug-24 05:30N 37°56' E 023°37'0 0.0
2019-Aug-24 05:00N 37°56' E 023°37'0 0.0
2019-Aug-22 09:30N 37°56' E 023°37'  
Track history (hours):
 
Tides and Currents Weather Stations Pressure Air Temp Water Temp Dewpoint Dewpoint Depression Visibility Wind Speed Wind Dir Waves Ship Positions

Oceanographic research ship Aegaeo (Greece)

Detailed information on ship capabilities available from University of Delaware's Ocean Information Center.

Last reported at 2019-Aug-30 04:25 UTC. Time now 2019-Sep-21 21:22 UTC.
Position N 37°56' E 023°37'.
Warning: this ship's position is 22 days out of date.

Length 61.5 m; beam 9.6 m; draft 2.9 m.

Type: Ship (hazmat cat A). MMSI: 237529000.

Date/timePositionNaut miles runAvg speedWind from/ knotsBaromVisibWave heightAir tempDewpointWater temp
2019-Aug-30 04:25N 37°56' E 023°37'1 1.5
2019-Aug-30 04:00N 37°56' E 023°37'4 7.8
2019-Aug-30 03:30N 37°52' E 023°35'4 7.4
2019-Aug-30 03:00N 37°49' E 023°35'4 7.3
2019-Aug-30 02:30N 37°45' E 023°35'1 2.1
2019-Aug-30 02:00N 37°44' E 023°34'0 0.0
2019-Aug-30 01:30N 37°44' E 023°34'0 0.0
2019-Aug-30 01:00N 37°44' E 023°34'0 1.0
2019-Aug-30 00:30N 37°44' E 023°34'0 0.0
2019-Aug-30 00:00N 37°44' E 023°34'0 0.0
2019-Aug-29 23:30N 37°44' E 023°34'0 0.0
2019-Aug-29 23:00N 37°44' E 023°34'0 0.9
2019-Aug-29 22:30N 37°44' E 023°34'4 7.2
2019-Aug-29 22:00N 37°41' E 023°35'4 7.1
2019-Aug-29 21:30N 37°37' E 023°35'4 7.4
2019-Aug-29 21:01N 37°33' E 023°36'4 7.6
2019-Aug-29 20:31N 37°29' E 023°36'4 7.4
2019-Aug-29 20:00N 37°26' E 023°36'4 7.4
2019-Aug-29 19:30N 37°22' E 023°36'5 8.2
2019-Aug-29 18:55N 37°17' E 023°35'12 7.5
2019-Aug-29 17:18N 37°06' E 023°31'  
2019-Aug-25 07:43N 37°19' E 025°54'2 9.2
2019-Aug-25 07:30N 37°20' E 025°52'5 9.4
2019-Aug-25 07:00N 37°22' E 025°47'4 7.9
2019-Aug-25 06:31N 37°24' E 025°42'0 0.2
2019-Aug-25 06:00N 37°24' E 025°42'0 0.5
2019-Aug-25 05:30N 37°25' E 025°42'1 1.2
2019-Aug-25 05:00N 37°24' E 025°42'0 0.8
2019-Aug-25 04:30N 37°25' E 025°42'0 0.5
2019-Aug-25 04:00N 37°25' E 025°42'3 5.0
2019-Aug-25 03:30N 37°27' E 025°41'510.0
2019-Aug-25 03:00N 37°32' E 025°39'5 9.8
2019-Aug-25 02:30N 37°36' E 025°36'5 9.7
2019-Aug-25 02:00N 37°41' E 025°34'5 9.5
2019-Aug-25 01:30N 37°45' E 025°32'5 9.6
2019-Aug-25 01:00N 37°50' E 025°30'63 5.4
2019-Aug-24 13:18N 37°36' E 024°12'2 7.8
2019-Aug-24 13:00N 37°34' E 024°10'6 6.8
2019-Aug-24 12:10N 37°30' E 024°06'5 1.6
2019-Aug-24 09:08N 37°32' E 024°00'210.1
2019-Aug-24 08:54N 37°34' E 023°58'410.0
2019-Aug-24 08:29N 37°37' E 023°55'5 9.8
2019-Aug-24 08:00N 37°40' E 023°50'5 9.7
2019-Aug-24 07:30N 37°44' E 023°47'510.0
2019-Aug-24 07:00N 37°48' E 023°43'510.2
2019-Aug-24 06:30N 37°53' E 023°40'4 8.5
2019-Aug-24 06:00N 37°56' E 023°37'0 0.0
2019-Aug-24 05:30N 37°56' E 023°37'0 0.0
2019-Aug-24 05:00N 37°56' E 023°37'0 0.0
2019-Aug-22 09:30N 37°56' E 023°37'  

Dump ship's entire track history